Time;durP1;ratioP1;P1;durP2;ratioP2;P2;SDS_P1;SDS_P2;PMS_P1;PMS_P2;Temp;Humidity;BMP_temperature;BMP_pressure;BME280_temperature;BME280_humidity;BME280_pressure;Samples;Min_cycle;Max_cycle;Signal;HPM_P1;HPM_P2
2024/01/19 00:01:02;;;;;;;;;;;;;;;9.49;100.00;97788.34;5092425;28;20026;-79
2024/01/19 00:03:27;;;;;;;;;;;;;;;9.45;100.00;97801.50;5092022;28;19994;-79
2024/01/19 00:05:53;;;;;;;;;;;;;;;9.27;100.00;97779.34;5090994;28;19908;-78
2024/01/19 00:08:18;;;;;;;;;;;;;;;9.25;100.00;97782.53;5092080;28;19915;-79
2024/01/19 00:10:43;;;;;;;;;;;;;;;9.34;100.00;97792.88;5092262;28;19931;-80
2024/01/19 00:13:09;;;;;;;;;;;;;;;9.06;100.00;97774.59;5091020;28;19920;-78
2024/01/19 00:15:34;;;;;;;;;;;;;;;9.07;100.00;97771.41;5090966;28;19912;-79
2024/01/19 00:18:00;;;;;;;;;;;;;;;9.16;100.00;97773.47;5084852;28;20656;-79
2024/01/19 00:20:25;;;;;;;;;;;;;;;9.07;100.00;97765.88;5070768;28;19916;-78
2024/01/19 00:22:50;;;;;;;;;;;;;;;9.07;100.00;97771.41;5090902;28;19943;-79
2024/01/19 00:25:16;;;;;;;;;;;;;;;9.14;100.00;97773.13;5091277;28;19912;-78
2024/01/19 00:27:41;;;;;;;;;;;;;;;9.07;100.00;97776.13;5085125;28;19969;-78
2024/01/19 00:30:06;;;;;;;;;;;;;;;8.97;100.00;97783.59;5084423;28;19919;-78
2024/01/19 00:32:32;;;;;;;;;;;;;;;8.94;100.00;97776.97;5090854;28;19915;-77
2024/01/19 00:34:57;;;;;;;;;;;;;;;9.11;100.00;97779.53;5091041;28;20276;-79
2024/01/19 00:37:22;;;;;;;;;;;;;;;9.01;100.00;97789.72;5090640;28;19985;-78
2024/01/19 00:39:48;;;;;;;;;;;;;;;8.99;100.00;97781.91;5090556;28;19912;-78
2024/01/19 00:42:13;;;;;;;;;;;;;;;8.80;100.00;97780.22;5094478;28;19918;-78
2024/01/19 00:44:38;;;;;;;;;;;;;;;8.84;100.00;97782.88;5095053;28;19912;-79
2024/01/19 00:47:03;;;;;;;;;;;;;;;8.77;100.00;97780.34;5094566;28;19912;-81
2024/01/19 00:49:29;;;;;;;;;;;;;;;8.69;100.00;97776.28;5096040;28;19919;-78
2024/01/19 00:51:54;;;;;;;;;;;;;;;8.62;100.00;97788.31;5094596;28;19912;-78
2024/01/19 00:54:19;;;;;;;;;;;;;;;8.46;100.00;97791.25;5094494;28;19915;-78
2024/01/19 00:56:45;;;;;;;;;;;;;;;8.35;100.00;97782.56;5094532;28;19920;-79
2024/01/19 00:59:10;;;;;;;;;;;;;;;8.28;100.00;97778.03;5083639;28;20007;-79
2024/01/19 01:01:35;;;;;;;;;;;;;;;8.36;100.00;97768.38;5092296;28;19916;-79
2024/01/19 01:04:02;;;;;;;;;;;;;;;8.41;100.00;97767.03;5094370;28;20384;-78
2024/01/19 01:06:28;;;;;;;;;;;;;;;8.42;100.00;97763.84;5095396;28;20023;-79
2024/01/19 01:08:53;;;;;;;;;;;;;;;8.43;100.00;97764.63;5095603;28;20010;-79
2024/01/19 01:11:18;;;;;;;;;;;;;;;8.33;100.00;97762.97;5094146;28;19959;-79
2024/01/19 01:13:44;;;;;;;;;;;;;;;8.20;100.00;97771.22;5094646;28;20024;-79
2024/01/19 01:16:09;;;;;;;;;;;;;;;8.09;100.00;97768.81;5094510;28;19939;-79
2024/01/19 01:18:34;;;;;;;;;;;;;;;7.98;100.00;97751.91;5094309;28;19912;-79
2024/01/19 01:21:00;;;;;;;;;;;;;;;7.90;100.00;97758.06;5094427;28;20402;-79
2024/01/19 01:23:25;;;;;;;;;;;;;;;7.80;100.00;97759.16;5094306;28;19912;-78
2024/01/19 01:25:50;;;;;;;;;;;;;;;7.71;100.00;97751.59;5094070;28;20307;-77
2024/01/19 01:28:16;;;;;;;;;;;;;;;7.67;100.00;97748.16;5094251;28;19916;-80
2024/01/19 01:30:41;;;;;;;;;;;;;;;7.63;100.00;97740.03;5094205;28;20303;-78
2024/01/19 01:33:07;;;;;;;;;;;;;;;7.80;100.00;97737.94;5094081;28;19916;-78
2024/01/19 01:35:33;;;;;;;;;;;;;;;7.85;100.00;97745.63;5093644;28;19916;-79
2024/01/19 01:37:59;;;;;;;;;;;;;;;7.84;100.00;97743.31;5093953;28;20391;-78
2024/01/19 01:40:24;;;;;;;;;;;;;;;7.86;100.00;97757.41;5094604;28;19918;-78
2024/01/19 01:42:49;;;;;;;;;;;;;;;7.87;100.00;97756.19;5094051;28;19995;-79
2024/01/19 01:45:15;;;;;;;;;;;;;;;7.75;100.00;97755.00;5091241;28;19977;-78
2024/01/19 01:47:40;;;;;;;;;;;;;;;7.75;100.00;97744.78;5082638;28;19916;-80
2024/01/19 01:50:06;;;;;;;;;;;;;;;7.85;100.00;97750.38;5091422;28;19955;-80
2024/01/19 01:52:32;;;;;;;;;;;;;;;7.74;100.00;97756.19;5081196;28;19912;-80
2024/01/19 01:54:57;;;;;;;;;;;;;;;7.67;100.00;97756.41;5079903;28;19965;-79
2024/01/19 01:57:23;;;;;;;;;;;;;;;7.62;100.00;97765.22;5094749;28;19916;-80
2024/01/19 01:59:49;;;;;;;;;;;;;;;7.64;100.00;97760.06;5093553;28;19991;-79
2024/01/19 02:02:14;;;;;;;;;;;;;;;7.79;100.00;97774.91;5093659;28;20019;-80
2024/01/19 02:04:40;;;;;;;;;;;;;;;7.96;100.00;97776.31;5091670;28;19919;-80
2024/01/19 02:07:05;;;;;;;;;;;;;;;7.99;100.00;97780.94;5082416;28;20411;-79
2024/01/19 02:09:31;;;;;;;;;;;;;;;8.04;100.00;97772.13;5079747;28;19912;-80
2024/01/19 02:11:57;;;;;;;;;;;;;;;8.05;100.00;97773.69;5093744;28;19934;-79
2024/01/19 02:14:22;;;;;;;;;;;;;;;7.98;100.00;97776.66;5094599;28;19973;-80
2024/01/19 02:16:47;;;;;;;;;;;;;;;8.03;100.00;97789.84;5093443;28;19916;-80
2024/01/19 02:19:13;;;;;;;;;;;;;;;8.13;100.00;97785.22;5094314;28;19912;-78
2024/01/19 02:21:38;;;;;;;;;;;;;;;8.05;100.00;97784.69;5093164;28;19970;-79
2024/01/19 02:24:04;;;;;;;;;;;;;;;8.06;100.00;97777.19;5092864;28;20386;-79
2024/01/19 02:26:30;;;;;;;;;;;;;;;8.15;100.00;97780.81;5093231;28;19919;-78
2024/01/19 02:28:56;;;;;;;;;;;;;;;8.07;100.00;97770.50;5092940;28;19912;-80
2024/01/19 02:31:21;;;;;;;;;;;;;;;8.23;100.00;97772.31;5093217;28;19912;-78
2024/01/19 02:33:47;;;;;;;;;;;;;;;8.28;100.00;97777.28;5092736;28;19923;-79
2024/01/19 02:36:12;;;;;;;;;;;;;;;8.31;100.00;97777.19;5092938;28;20458;-79
2024/01/19 02:38:37;;;;;;;;;;;;;;;8.42;100.00;97779.59;5092554;28;19919;-78
2024/01/19 02:41:03;;;;;;;;;;;;;;;8.44;100.00;97786.16;5092767;28;19995;-78
2024/01/19 02:43:28;;;;;;;;;;;;;;;8.41;100.00;97787.06;5092534;28;20291;-79
2024/01/19 02:45:53;;;;;;;;;;;;;;;8.50;100.00;97786.38;5092885;28;19912;-79
2024/01/19 02:48:18;;;;;;;;;;;;;;;8.59;100.00;97775.47;5092375;28;19919;-78
2024/01/19 02:50:44;;;;;;;;;;;;;;;8.61;100.00;97770.28;5092413;28;20036;-79
2024/01/19 02:53:10;;;;;;;;;;;;;;;8.50;100.00;97773.38;5092178;28;19955;-78
2024/01/19 02:55:35;;;;;;;;;;;;;;;8.56;100.00;97782.63;5092168;28;19920;-79
2024/01/19 02:58:00;;;;;;;;;;;;;;;8.56;100.00;97782.63;5092501;28;19912;-79
2024/01/19 03:00:26;;;;;;;;;;;;;;;8.52;100.00;97795.75;5092357;28;19977;-80
2024/01/19 03:02:51;;;;;;;;;;;;;;;8.55;100.00;97794.09;5091820;28;19923;-81
2024/01/19 03:05:16;;;;;;;;;;;;;;;8.36;100.00;97797.88;5092256;28;20353;-79
2024/01/19 03:07:42;;;;;;;;;;;;;;;8.33;100.00;97793.25;5091718;28;20379;-81
2024/01/19 03:10:07;;;;;;;;;;;;;;;8.43;100.00;97789.38;5093469;28;20006;-81
2024/01/19 03:12:33;;;;;;;;;;;;;;;8.43;100.00;97783.88;5078391;28;20420;-80
2024/01/19 03:14:58;;;;;;;;;;;;;;;8.37;100.00;97791.16;5092023;28;19957;-80
2024/01/19 03:17:23;;;;;;;;;;;;;;;8.22;100.00;97773.53;5092724;28;19912;-80
2024/01/19 03:19:50;;;;;;;;;;;;;;;8.08;100.00;97786.53;5092582;28;19909;-80
2024/01/19 03:22:15;;;;;;;;;;;;;;;8.12;100.00;97773.47;5085685;28;19960;-80
2024/01/19 03:24:40;;;;;;;;;;;;;;;8.15;100.00;97796.53;5084594;28;20011;-80
2024/01/19 03:27:06;;;;;;;;;;;;;;;8.00;100.00;97781.72;5073271;28;20295;-80
2024/01/19 03:29:31;;;;;;;;;;;;;;;8.08;100.00;97794.00;5091963;28;20370;-80
2024/01/19 03:31:56;;;;;;;;;;;;;;;8.09;100.00;97793.59;5091141;28;19916;-80
2024/01/19 03:34:22;;;;;;;;;;;;;;;8.26;100.00;97782.47;5078524;28;20387;-81
2024/01/19 03:36:47;;;;;;;;;;;;;;;8.30;100.00;97789.41;5090811;28;19912;-80
2024/01/19 03:39:13;;;;;;;;;;;;;;;8.24;100.00;97780.16;5090814;28;19999;-80
2024/01/19 03:41:38;;;;;;;;;;;;;;;8.25;100.00;97775.41;5092219;28;19912;-80
2024/01/19 03:44:03;;;;;;;;;;;;;;;8.14;100.00;97781.25;5077321;28;19912;-81
2024/01/19 03:46:29;;;;;;;;;;;;;;;8.10;100.00;97795.13;5090880;28;20429;-81
2024/01/19 03:48:54;;;;;;;;;;;;;;;8.17;100.00;97794.91;5084188;28;20387;-79
2024/01/19 03:51:19;;;;;;;;;;;;;;;8.10;100.00;97792.38;5083952;28;20372;-80
2024/01/19 03:53:44;;;;;;;;;;;;;;;8.07;100.00;97795.25;5090917;28;19916;-80
2024/01/19 03:56:10;;;;;;;;;;;;;;;8.18;100.00;97793.69;5091421;28;19923;-78
2024/01/19 03:58:35;;;;;;;;;;;;;;;8.07;100.00;97795.25;5091360;28;20351;-78
2024/01/19 04:01:01;;;;;;;;;;;;;;;8.15;100.00;97791.81;5091540;28;19942;-78
2024/01/19 04:03:26;;;;;;;;;;;;;;;8.11;100.00;97799.41;5090788;28;19916;-78
2024/01/19 04:05:51;;;;;;;;;;;;;;;8.12;100.00;97809.22;5091104;28;20362;-78
2024/01/19 04:08:17;;;;;;;;;;;;;;;8.09;100.00;97801.06;5090793;28;19916;-78
2024/01/19 04:10:42;;;;;;;;;;;;;;;8.16;100.00;97803.59;5091245;28;20391;-77
2024/01/19 04:13:07;;;;;;;;;;;;;;;8.19;100.00;97799.97;5078756;28;19912;-79
2024/01/19 04:15:32;;;;;;;;;;;;;;;8.09;100.00;97810.09;5090491;28;19973;-78
2024/01/19 04:17:58;;;;;;;;;;;;;;;8.04;100.00;97804.38;5090802;28;19969;-79
2024/01/19 04:20:23;;;;;;;;;;;;;;;8.06;100.00;97810.22;5090889;28;20315;-79
2024/01/19 04:22:49;;;;;;;;;;;;;;;7.88;100.00;97799.78;5090694;28;19973;-79
2024/01/19 04:25:14;;;;;;;;;;;;;;;7.85;100.00;97800.63;5092555;28;20307;-79
2024/01/19 04:27:39;;;;;;;;;;;;;;;7.81;100.00;97793.72;5090647;28;19943;-79
2024/01/19 04:30:05;;;;;;;;;;;;;;;7.83;100.00;97805.06;5091041;28;19971;-78
2024/01/19 04:32:30;;;;;;;;;;;;;;;7.78;100.00;97817.34;5090755;28;19916;-78
2024/01/19 04:34:55;;;;;;;;;;;;;;;7.78;100.00;97820.09;5090857;28;19912;-78
2024/01/19 04:37:21;;;;;;;;;;;;;;;7.73;100.00;97828.91;5090583;28;19912;-79
2024/01/19 04:39:46;;;;;;;;;;;;;;;7.76;100.00;97828.81;5090877;28;19919;-79
2024/01/19 04:42:12;;;;;;;;;;;;;;;7.72;100.00;97824.59;5091989;28;20445;-79
2024/01/19 04:44:38;;;;;;;;;;;;;;;7.72;100.00;97830.09;5090971;28;20011;-78
2024/01/19 04:47:03;;;;;;;;;;;;;;;7.80;100.00;97834.19;5091978;28;19911;-79
2024/01/19 04:49:28;;;;;;;;;;;;;;;7.74;100.00;97833.19;5090714;28;19912;-78
2024/01/19 04:51:54;;;;;;;;;;;;;;;7.82;100.00;97842.00;5090577;28;19916;-78
2024/01/19 04:54:19;;;;;;;;;;;;;;;7.71;100.00;97842.31;5090121;28;20368;-78
2024/01/19 04:56:44;;;;;;;;;;;;;;;7.50;100.00;97846.47;5090329;28;20311;-79
2024/01/19 04:59:10;;;;;;;;;;;;;;;7.39;100.00;97835.00;5090655;28;19915;-78
2024/01/19 05:01:35;;;;;;;;;;;;;;;7.27;100.00;97838.50;5085707;28;19913;-79
2024/01/19 05:04:00;;;;;;;;;;;;;;;7.20;100.00;97833.97;5081879;28;19912;-78
2024/01/19 05:06:26;;;;;;;;;;;;;;;7.21;100.00;97849.25;5090113;28;19977;-78
2024/01/19 05:08:51;;;;;;;;;;;;;;;7.14;100.00;97848.66;5090757;28;19912;-79
2024/01/19 05:11:16;;;;;;;;;;;;;;;7.09;100.00;97855.47;5087177;28;19916;-79
2024/01/19 05:13:43;;;;;;;;;;;;;;;7.03;100.00;97854.44;5080465;28;20675;-78
2024/01/19 05:16:08;;;;;;;;;;;;;;;6.92;100.00;97848.47;5078245;28;20014;-79
2024/01/19 05:18:34;;;;;;;;;;;;;;;6.83;100.00;97853.78;5090717;28;19991;-79
2024/01/19 05:21:00;;;;;;;;;;;;;;;6.78;100.00;97857.84;5091471;28;19912;-79
2024/01/19 05:23:25;;;;;;;;;;;;;;;6.87;100.00;97854.50;5090189;28;19919;-79
2024/01/19 05:25:50;;;;;;;;;;;;;;;6.82;100.00;97853.03;5090442;28;19912;-79
2024/01/19 05:28:16;;;;;;;;;;;;;;;6.87;100.00;97851.75;5093996;28;20426;-79
2024/01/19 05:30:42;;;;;;;;;;;;;;;7.02;100.00;97850.16;5094121;28;19916;-78
2024/01/19 05:33:08;;;;;;;;;;;;;;;7.09;100.00;97854.69;5093825;28;20433;-78
2024/01/19 05:35:33;;;;;;;;;;;;;;;7.15;100.00;97839.22;5090222;28;19912;-78
2024/01/19 05:37:58;;;;;;;;;;;;;;;7.27;100.00;97846.72;5085009;28;19923;-78
2024/01/19 05:40:23;;;;;;;;;;;;;;;7.38;100.00;97840.94;5094028;28;19912;-79
2024/01/19 05:42:49;;;;;;;;;;;;;;;7.46;100.00;97845.03;5093630;28;19912;-78
2024/01/19 05:45:14;;;;;;;;;;;;;;;7.54;100.00;97847.13;5093627;28;19937;-79
2024/01/19 05:47:40;;;;;;;;;;;;;;;7.55;100.00;97862.41;5093564;28;19912;-79
2024/01/19 05:50:06;;;;;;;;;;;;;;;7.31;100.00;97861.91;5081045;28;20296;-78
2024/01/19 05:52:31;;;;;;;;;;;;;;;7.18;100.00;97863.06;5093410;28;20398;-78
2024/01/19 05:54:56;;;;;;;;;;;;;;;7.14;100.00;97860.41;5094760;28;19916;-78
2024/01/19 05:57:22;;;;;;;;;;;;;;;7.09;100.00;97868.41;5094592;28;20383;-79
2024/01/19 05:59:47;;;;;;;;;;;;;;;7.16;100.00;97876.47;5093443;28;20309;-78
2024/01/19 06:02:12;;;;;;;;;;;;;;;7.16;100.00;97880.00;5093265;28;19923;-79
2024/01/19 06:04:38;;;;;;;;;;;;;;;7.20;100.00;97891.66;5093250;28;19912;-79
2024/01/19 06:07:04;;;;;;;;;;;;;;;7.20;100.00;97888.91;5083428;28;19916;-79
2024/01/19 06:09:29;;;;;;;;;;;;;;;7.11;100.00;97885.25;5081087;28;19933;-78
2024/01/19 06:11:55;;;;;;;;;;;;;;;7.26;100.00;97884.41;5078075;28;20324;-78
2024/01/19 06:14:20;;;;;;;;;;;;;;;7.32;100.00;97893.66;5076225;28;20380;-79
2024/01/19 06:16:46;;;;;;;;;;;;;;;7.42;100.00;97882.81;5083859;28;19916;-79
2024/01/19 06:19:11;;;;;;;;;;;;;;;7.57;100.00;97889.47;5092975;28;19912;-79
2024/01/19 06:21:36;;;;;;;;;;;;;;;7.70;100.00;97890.28;5092875;28;19915;-79
2024/01/19 06:24:02;;;;;;;;;;;;;;;7.91;100.00;97891.59;5091390;28;19912;-79
2024/01/19 06:26:32;;;;;;;;;;;;;;;7.98;100.00;97889.44;5093049;28;19912;-79
2024/01/19 06:29:00;;;;;;;;;;;;;;;8.03;100.00;97891.63;5092968;28;19959;-80
2024/01/19 06:31:26;;;;;;;;;;;;;;;8.08;100.00;97895.81;5092726;28;19912;-80
2024/01/19 06:33:51;;;;;;;;;;;;;;;8.20;100.00;97902.56;5093578;28;19919;-80
2024/01/19 06:36:16;;;;;;;;;;;;;;;8.29;100.00;97895.16;5093124;28;20398;-81
2024/01/19 06:38:42;;;;;;;;;;;;;;;8.49;100.00;97886.72;5091604;28;19920;-80
2024/01/19 06:41:07;;;;;;;;;;;;;;;8.67;100.00;97905.41;5092987;28;19992;-80
2024/01/19 06:43:32;;;;;;;;;;;;;;;8.69;100.00;97909.25;5091629;28;20299;-81
2024/01/19 06:45:58;;;;;;;;;;;;;;;8.72;100.00;97908.38;5091727;28;19912;-80
2024/01/19 06:48:23;;;;;;;;;;;;;;;8.82;100.00;97917.50;5092065;28;19908;-80
2024/01/19 06:50:48;;;;;;;;;;;;;;;8.94;100.00;97922.97;5091774;28;19908;-81
2024/01/19 06:53:14;;;;;;;;;;;;;;;9.06;100.00;97913.13;5091889;28;20368;-80
2024/01/19 06:55:39;;;;;;;;;;;;;;;9.29;100.00;97922.97;5091821;28;19920;-79
2024/01/19 06:58:04;;;;;;;;;;;;;;;9.47;100.00;97909.34;5078287;28;19916;-79
2024/01/19 07:00:29;;;;;;;;;;;;;;;9.50;100.00;97913.97;5092172;28;19924;-80
2024/01/19 07:02:55;;;;;;;;;;;;;;;9.58;100.00;97915.28;5092102;28;19951;-80
2024/01/19 07:05:20;;;;;;;;;;;;;;;9.53;100.00;97915.81;5091943;28;20014;-81
2024/01/19 07:07:45;;;;;;;;;;;;;;;9.58;100.00;97918.03;5091673;28;19920;-79
2024/01/19 07:10:11;;;;;;;;;;;;;;;9.52;100.00;97921.81;5093174;28;20371;-81
2024/01/19 07:12:36;;;;;;;;;;;;;;;9.54;100.00;97925.63;5091557;28;19919;-81
2024/01/19 07:15:02;;;;;;;;;;;;;;;9.63;100.00;97919.44;5091608;28;19912;-80
2024/01/19 07:17:27;;;;;;;;;;;;;;;9.70;100.00;97911.69;5090879;28;19935;-81
2024/01/19 07:19:52;;;;;;;;;;;;;;;9.73;100.00;97927.31;5092692;28;19912;-81
2024/01/19 07:22:17;;;;;;;;;;;;;;;9.93;100.00;97929.75;5074671;28;19912;-81
2024/01/19 07:24:43;;;;;;;;;;;;;;;10.17;100.00;97922.56;5091632;28;20295;-81
2024/01/19 07:27:08;;;;;;;;;;;;;;;10.32;100.00;97924.75;5091481;28;19912;-81
2024/01/19 07:29:34;;;;;;;;;;;;;;;10.36;100.00;97919.88;5091403;28;19912;-79
2024/01/19 07:32:02;;;;;;;;;;;;;;;10.48;100.00;97910.72;5091146;28;19965;-81
2024/01/19 07:34:27;;;;;;;;;;;;;;;10.52;100.00;97916.88;5092795;28;19935;-79
2024/01/19 07:36:52;;;;;;;;;;;;;;;10.45;100.00;97909.63;5091309;28;20371;-80
2024/01/19 07:39:23;;;;;;;;;;;;;;;10.40;100.00;97913.00;5092475;28;19985;-81
2024/01/19 07:41:49;;;;;;;;;;;;;;;10.19;100.00;97920.09;5090984;28;19908;-80
2024/01/19 07:44:14;;;;;;;;;;;;;;;10.17;100.00;97917.03;5092412;28;19957;-80
2024/01/19 07:46:40;;;;;;;;;;;;;;;10.23;100.00;97913.69;5091179;28;19911;-80
2024/01/19 07:49:05;;;;;;;;;;;;;;;10.27;100.00;97919.81;5090692;28;19912;-80
2024/01/19 07:51:30;;;;;;;;;;;;;;;10.32;100.00;97928.28;5090243;28;19915;-80
2024/01/19 07:53:56;;;;;;;;;;;;;;;10.31;100.00;97926.00;5090667;28;19916;-79
2024/01/19 07:56:21;;;;;;;;;;;;;;;10.26;100.00;97924.56;5092002;28;19919;-79
2024/01/19 07:58:46;;;;;;;;;;;;;;;10.34;100.00;97925.06;5092352;28;19907;-80
2024/01/19 08:01:12;;;;;;;;;;;;;;;10.40;100.00;97921.28;5091843;28;19915;-79
2024/01/19 08:03:38;;;;;;;;;;;;;;;10.75;100.00;97921.06;5090805;28;20405;-80
2024/01/19 08:06:04;;;;;;;;;;;;;;;11.14;100.00;97930.53;5091951;28;19908;-80
2024/01/19 08:08:29;;;;;;;;;;;;;;;11.52;100.00;97930.06;5090776;28;19912;-80
2024/01/19 08:10:55;;;;;;;;;;;;;;;11.80;100.00;97942.72;5091880;28;19934;-80
2024/01/19 08:13:20;;;;;;;;;;;;;;;12.08;100.00;97944.19;5090624;28;20010;-81
2024/01/19 08:15:45;;;;;;;;;;;;;;;12.46;100.00;97934.56;5091826;28;19907;-79
2024/01/19 08:18:10;;;;;;;;;;;;;;;12.85;100.00;97943.75;5073389;28;19920;-79
2024/01/19 08:20:36;;;;;;;;;;;;;;;13.09;100.00;97944.53;5091635;28;19911;-80
2024/01/19 08:23:02;;;;;;;;;;;;;;;13.33;100.00;97953.66;5091748;28;19999;-80
2024/01/19 08:25:27;;;;;;;;;;;;;;;13.47;100.00;97951.41;5090283;28;19916;-80
2024/01/19 08:27:52;;;;;;;;;;;;;;;13.33;100.00;97956.44;5090608;28;19918;-80
2024/01/19 08:30:19;;;;;;;;;;;;;;;13.11;100.00;97955.16;5088584;28;19908;-80
2024/01/19 08:32:45;;;;;;;;;;;;;;;13.12;100.00;97949.19;5078845;28;19912;-80
2024/01/19 08:35:11;;;;;;;;;;;;;;;13.41;100.00;97943.75;5091540;28;19908;-79
2024/01/19 08:37:37;;;;;;;;;;;;;;;13.58;100.00;97937.75;5090231;28;19918;-80
2024/01/19 08:40:04;;;;;;;;;;;;;;;13.78;99.35;97941.44;5090347;28;19916;-79
2024/01/19 08:42:29;;;;;;;;;;;;;;;13.90;99.16;97950.75;5089935;28;20431;-79
2024/01/19 08:44:55;;;;;;;;;;;;;;;14.08;97.28;97944.25;5090016;28;20006;-80
2024/01/19 08:47:20;;;;;;;;;;;;;;;14.20;97.30;97948.75;5091416;28;19915;-80
2024/01/19 08:49:45;;;;;;;;;;;;;;;14.43;95.50;97949.91;5091177;28;20089;-81
2024/01/19 08:52:10;;;;;;;;;;;;;;;14.62;94.63;97952.00;5090234;28;19968;-79
2024/01/19 08:54:37;;;;;;;;;;;;;;;14.85;94.14;97946.78;5089790;28;20316;-80
2024/01/19 08:57:03;;;;;;;;;;;;;;;14.89;91.68;97950.88;5090103;28;19928;-78
2024/01/19 08:59:28;;;;;;;;;;;;;;;14.87;91.48;97949.84;5091319;28;20017;-79
2024/01/19 09:01:54;;;;;;;;;;;;;;;14.78;93.03;97950.72;5092609;28;19914;-79
2024/01/19 09:04:19;;;;;;;;;;;;;;;14.82;94.38;97939.41;5093821;28;19914;-80
2024/01/19 09:06:45;;;;;;;;;;;;;;;14.97;92.28;97940.13;5095274;28;19919;-80
2024/01/19 09:09:10;;;;;;;;;;;;;;;15.05;89.32;97932.91;5093814;28;19969;-79
2024/01/19 09:11:35;;;;;;;;;;;;;;;15.28;88.85;97928.41;5093858;28;19911;-80
2024/01/19 09:14:02;;;;;;;;;;;;;;;15.43;89.75;97935.41;5095093;28;20362;-79
2024/01/19 09:16:27;;;;;;;;;;;;;;;15.47;86.88;97933.19;5095030;28;19908;-81
2024/01/19 09:18:52;;;;;;;;;;;;;;;15.58;86.28;97937.38;5093598;28;20003;-79
2024/01/19 09:21:18;;;;;;;;;;;;;;;15.83;83.56;97936.66;5095154;28;19995;-81
2024/01/19 09:23:43;;;;;;;;;;;;;;;15.97;83.83;97926.69;5094901;28;19908;-78
2024/01/19 09:26:19;;;;;;;;;;;;;;;16.11;79.94;97920.97;5093748;28;20643;-80
2024/01/19 09:28:46;;;;;;;;;;;;;;;16.25;78.26;97916.56;5093375;28;20395;-81
2024/01/19 09:31:11;;;;;;;;;;;;;;;16.34;74.33;97916.34;5093522;28;19912;-79
2024/01/19 09:33:37;;;;;;;;;;;;;;;16.54;74.24;97913.50;5093393;28;19912;-79
2024/01/19 09:36:02;;;;;;;;;;;;;;;16.55;69.99;97905.88;5092847;28;19908;-81
2024/01/19 09:38:28;;;;;;;;;;;;;;;16.75;71.78;97908.59;5093693;28;19912;-80
2024/01/19 09:41:02;;;;;;;;;;;;;;;16.93;71.30;97897.03;5094079;28;19912;-79
2024/01/19 09:43:32;;;;;;;;;;;;;;;17.13;68.91;97895.34;5093365;28;19912;-81
2024/01/19 09:46:02;;;;;;;;;;;;;;;17.23;66.64;97902.25;5093535;28;20056;-80
2024/01/19 09:48:33;;;;;;;;;;;;;;;17.24;61.67;97898.22;5076540;28;19912;-81
2024/01/19 09:51:02;;;;;;;;;;;;;;;17.26;61.20;97906.84;5092216;28;19909;-79
2024/01/19 09:53:32;;;;;;;;;;;;;;;17.22;64.81;97906.31;5090979;28;20387;-79
2024/01/19 09:55:58;;;;;;;;;;;;;;;17.18;62.67;97897.44;5091214;28;19916;-79
2024/01/19 09:58:24;;;;;;;;;;;;;;;17.01;64.54;97886.94;5092147;28;19916;-80
2024/01/19 10:00:50;;;;;;;;;;;;;;;16.90;63.65;97889.66;5092605;28;19908;-79
2024/01/19 10:03:16;;;;;;;;;;;;;;;16.91;61.53;97893.22;5090663;28;19987;-78
2024/01/19 10:05:42;;;;;;;;;;;;;;;16.73;66.26;97899.97;5091035;28;19908;-79
2024/01/19 10:08:08;;;;;;;;;;;;;;;16.53;62.84;97897.25;5085975;28;19908;-79
2024/01/19 10:10:33;;;;;;;;;;;;;;;16.41;63.36;97901.22;5085768;28;19946;-79
2024/01/19 10:12:58;;;;;;;;;;;;;;;16.34;65.73;97884.94;5092134;28;19912;-79
2024/01/19 10:15:24;;;;;;;;;;;;;;;16.31;62.80;97878.34;5092308;28;19963;-78
2024/01/19 10:17:51;;;;;;;;;;;;;;;16.28;64.06;97880.06;5093833;28;20331;-79
2024/01/19 10:20:17;;;;;;;;;;;;;;;16.32;63.75;97879.09;5093543;28;19908;-80
2024/01/19 10:22:43;;;;;;;;;;;;;;;16.23;59.35;97880.81;5092409;28;19912;-78
2024/01/19 10:25:08;;;;;;;;;;;;;;;16.27;60.35;97883.38;5092460;28;19908;-79
2024/01/19 10:27:40;;;;;;;;;;;;;;;16.19;58.45;97885.06;5078924;28;19919;-79
2024/01/19 10:30:10;;;;;;;;;;;;;;;16.22;59.86;97873.69;5092200;28;19951;-80
2024/01/19 10:32:36;;;;;;;;;;;;;;;16.27;58.10;97881.34;5093610;28;20398;-79
2024/01/19 10:35:09;;;;;;;;;;;;;;;16.26;58.76;97879.81;5093554;28;19919;-79
2024/01/19 10:37:34;;;;;;;;;;;;;;;16.23;59.41;97874.47;5085865;28;19912;-79
2024/01/19 10:40:16;;;;;;;;;;;;;;;16.23;59.56;97871.66;5093296;28;19919;-80
2024/01/19 10:42:42;;;;;;;;;;;;;;;16.29;57.92;97864.88;5092135;28;19958;-78
2024/01/19 10:45:23;;;;;;;;;;;;;;;16.41;59.50;97853.81;5091810;28;19908;-79
2024/01/19 10:47:49;;;;;;;;;;;;;;;16.54;58.65;97856.94;5092072;28;20372;-80
2024/01/19 10:50:15;;;;;;;;;;;;;;;16.62;58.03;97844.09;5091808;28;19915;-80
2024/01/19 10:52:41;;;;;;;;;;;;;;;16.57;59.50;97842.03;5093224;28;19908;-80
2024/01/19 10:55:07;;;;;;;;;;;;;;;16.64;60.46;97844.34;5090633;28;19959;-81
2024/01/19 10:57:32;;;;;;;;;;;;;;;16.59;60.20;97840.28;5091730;28;19966;-80
2024/01/19 10:59:57;;;;;;;;;;;;;;;16.63;61.41;97834.47;5091927;28;19930;-80
2024/01/19 11:02:23;;;;;;;;;;;;;;;16.64;62.20;97831.19;5092363;28;19969;-80
2024/01/19 11:04:50;;;;;;;;;;;;;;;16.63;60.13;97834.47;5092085;28;19919;-82
2024/01/19 11:07:16;;;;;;;;;;;;;;;16.61;60.33;97828.63;5093406;28;19916;-79
2024/01/19 11:09:41;;;;;;;;;;;;;;;16.55;59.72;97828.56;5093032;28;19908;-82
2024/01/19 11:12:08;;;;;;;;;;;;;;;16.50;61.01;97831.31;5091880;28;19912;-80
2024/01/19 11:14:34;;;;;;;;;;;;;;;16.46;60.42;97825.19;5091826;28;20382;-78
2024/01/19 11:17:00;;;;;;;;;;;;;;;16.45;61.67;97827.25;5093315;28;19979;-82
2024/01/19 11:19:25;;;;;;;;;;;;;;;16.54;63.12;97806.75;5091945;28;20349;-80
2024/01/19 11:21:50;;;;;;;;;;;;;;;16.54;63.25;97803.97;5093404;28;20003;-79
2024/01/19 11:24:17;;;;;;;;;;;;;;;16.53;63.81;97808.78;5092538;28;20304;-79
2024/01/19 11:27:01;;;;;;;;;;;;;;;16.61;64.09;97803.53;5093333;28;19908;-80
2024/01/19 11:29:31;;;;;;;;;;;;;;;16.59;64.25;97794.84;5072959;28;19908;-81
2024/01/19 11:31:57;;;;;;;;;;;;;;;16.62;64.19;97799.47;5090827;28;19915;-81
2024/01/19 11:34:41;;;;;;;;;;;;;;;16.76;62.98;97795.72;5092060;28;20372;-81
2024/01/19 11:37:06;;;;;;;;;;;;;;;16.85;64.81;97786.41;5086628;28;19920;-81
2024/01/19 11:39:42;;;;;;;;;;;;;;;16.92;67.11;97794.28;5082352;28;19912;-80
2024/01/19 11:42:08;;;;;;;;;;;;;;;17.07;66.48;97784.44;5089422;28;19923;-81
2024/01/19 11:44:41;;;;;;;;;;;;;;;17.19;64.15;97790.06;5082778;28;19927;-80
2024/01/19 11:47:06;;;;;;;;;;;;;;;17.22;63.34;97773.09;5079008;28;19944;-82
2024/01/19 11:49:38;;;;;;;;;;;;;;;17.27;62.01;97779.94;5089134;28;19974;-81
2024/01/19 11:52:24;;;;;;;;;;;;;;;17.36;62.80;97777.66;5082802;28;19920;-79
2024/01/19 11:54:49;;;;;;;;;;;;;;;17.44;62.46;97781.50;5078093;28;19916;-79
2024/01/19 11:57:15;;;;;;;;;;;;;;;17.53;61.76;97780.50;5089973;28;19986;-81
2024/01/19 11:59:40;;;;;;;;;;;;;;;17.52;59.19;97776.19;5080668;28;19966;-81
2024/01/19 12:02:06;;;;;;;;;;;;;;;17.56;58.97;97767.53;5087240;28;19963;-80
2024/01/19 12:04:34;;;;;;;;;;;;;;;17.74;58.91;97778.25;5082966;28;19924;-80
2024/01/19 12:07:03;;;;;;;;;;;;;;;17.62;58.65;97774.69;5083389;28;19916;-80
2024/01/19 12:09:28;;;;;;;;;;;;;;;17.67;59.90;97782.31;5087465;28;19927;-79
2024/01/19 12:11:56;;;;;;;;;;;;;;;17.52;60.82;97775.41;5076654;28;19912;-81
2024/01/19 12:14:22;;;;;;;;;;;;;;;17.27;61.69;97768.78;5088406;28;19916;-81
2024/01/19 12:16:48;;;;;;;;;;;;;;;17.21;62.17;97785.50;5089312;28;19930;-81
2024/01/19 12:19:14;;;;;;;;;;;;;;;17.19;63.04;97785.25;5090282;28;19924;-80
2024/01/19 12:21:40;;;;;;;;;;;;;;;17.11;63.45;97781.44;5086603;28;19916;-81
2024/01/19 12:24:07;;;;;;;;;;;;;;;17.06;62.67;97773.78;5083910;28;19966;-81
2024/01/19 12:26:32;;;;;;;;;;;;;;;17.01;63.12;97782.91;5067505;28;19916;-80
2024/01/19 12:28:58;;;;;;;;;;;;;;;16.97;63.29;97782.38;5077032;28;20007;-80
2024/01/19 12:31:25;;;;;;;;;;;;;;;16.88;64.03;97783.34;5078028;28;19920;-81
2024/01/19 12:33:50;;;;;;;;;;;;;;;16.83;64.22;97781.31;5076021;28;19912;-82
2024/01/19 12:36:17;;;;;;;;;;;;;;;16.84;64.24;97776.50;5078551;28;19920;-79
2024/01/19 12:38:42;;;;;;;;;;;;;;;16.83;63.50;97780.53;5098499;28;19924;-81